DABTDAAE

Guest
Details From DABT - BATNA
To DAAE - SOUMMAM
Flight Number -
Tags generated
Created
Modified
Stats Distance 86 nm / 159 km
Max Altitude 700 ft / 213 m
Waypoints 3
Social Downloads 1
Likes 0
Share VATSIM

Download

Looking for another format? Having issues loading an existing format? Contact us
Advertisement - Login to hide

Notes

Basic altitude profile: - Ascent Rate: 2500ft/min - Ascent Speed: 250kts - Cruise Altitude: 35000ft - Cruise Speed: 420kts - Descent Rate: 1500ft/min - Descent Speed: 250kts Options: - Use NATs: yes - Use PACOTS: yes - Use low airways: no - Use high airways: yes

Route

DABT BTN DAAE

ID Type Via Altitude Latitude Longitude Leg Dist Tot Dist Heading (true) Name
O DABT APT - 0 ft / 0 m 35.75210˚ 6.30859˚ - 0 nm - BATNA
BTN VOR - 700 ft / 213 m 35.77153˚ 6.34379˚ 2 nm 2 nm 56° / 56° BATNA VOR-DME
O DAAE APT - 0 ft / 0 m 36.71181˚ 5.06986˚ 83 nm 85 nm 313° / 312° SOUMMAM

Altitude Profile

Advertisement - Login to hide

DABT

Details ICAO DABT (BLJ)
Name BATNA
Region Algeria
Timezone Africa/Algiers (UTC+1.0)
Stats Elevation 2,697 ft / 822 m (AMSL)
Location 35.752104° 6.308589°
Runways 1
Magnetic Variation 1.694° E

METAR

DABT 260600Z 00000KT CAVOK 16/13 Q1018

Decode

TAF

TAF DABT 260500Z 2606/2706 28008KT 9999 FEW030 BECMG 2607/2609 17014KT PROB30 TEMPO 2608/2618 16015G25KT FEW023TCU BECMG 2620/2623 23008KT

Decode

Departure Runways

ID Width Length Bearing (true) Bearing (mag) Surface Threshold Offset Overrun Length
05 148 ft / 45 m 9,837 ft / 2,998 m 54.80° 53.11° Asphalt 0 ft / 0 m 350 ft / 107 m
23 148 ft / 45 m 9,837 ft / 2,998 m 234.81° 233.12° Asphalt 0 ft / 0 m 375 ft / 114 m

DAAE

Details ICAO DAAE (BJA)
Name SOUMMAM
Region Algeria
Timezone Africa/Algiers (UTC+1.0)
Stats Elevation 20 ft / 6 m (AMSL)
Location 36.711805° 5.069862°
Runways 1
Magnetic Variation 1.490° E

METAR

DAAE 260600Z 21005KT 6000 FEW006 SCT233 17/16 Q1013

Decode

TAF

TAF DAAE 260500Z 2606/2706 30008KT 8000 FEW010 FEW020 PROB40 TEMPO 2606/2609 3000 BR BKN010 BECMG 2610/2612 03010KT PROB30 TEMPO 2612/2618 FEW030TCU BECMG 2622/2701 26008KT PROB30 TEMPO 2700/2706 3000 BR BKN010

Decode

Destination Runways

ID Width Length Bearing (true) Bearing (mag) Surface Threshold Offset Overrun Length
08 148 ft / 45 m 7,831 ft / 2,387 m 80.31° 78.82° Asphalt 0 ft / 0 m 204 ft / 62 m
26 148 ft / 45 m 7,831 ft / 2,387 m 260.32° 258.83° Asphalt 0 ft / 0 m 113 ft / 34 m

Approach Navaids

Runway Type Ident Frequency Range Bearing (true) Bearing (mag) Slope Elevation
26 Localiser BJ 110.50 MHz 18 nm / 33 km 261.39° 259.90° - 20 ft / 6 m (AMSL)
26 DME BJ 110.50 MHz 18 nm / 33 km - - - 20 ft / 6 m (AMSL)